createdAt,value
2019-02-22T00:02:21.059Z,102542.03
2019-02-22T00:04:47.089Z,102542.59
2019-02-22T00:07:13.073Z,102534.41
2019-02-22T00:09:49.188Z,102549.39
2019-02-22T00:12:06.860Z,102548.55
2019-02-22T00:14:32.823Z,102542.05
2019-02-22T00:16:58.835Z,102547.88
2019-02-22T00:19:24.842Z,102554.47
2019-02-22T00:21:50.827Z,102556.74
2019-02-22T00:24:16.827Z,102558.14
2019-02-22T00:26:42.794Z,102561.27
2019-02-22T00:29:08.809Z,102562.94
2019-02-22T00:31:34.799Z,102562.19
2019-02-22T00:34:00.820Z,102563.98
2019-02-22T00:36:26.801Z,102570.69
2019-02-22T00:38:52.983Z,102567.17
2019-02-22T00:41:18.949Z,102566.34
2019-02-22T00:43:44.936Z,102568.97
2019-02-22T00:46:10.940Z,102573.05
2019-02-22T00:48:36.932Z,102573.48
2019-02-22T00:51:02.912Z,102585.47
2019-02-22T00:53:28.874Z,102582.44
2019-02-22T00:55:54.884Z,102586.39
2019-02-22T00:58:20.871Z,102587.34
2019-02-22T01:00:46.839Z,102591.77
2019-02-22T01:03:12.913Z,102598.81
2019-02-22T01:05:38.945Z,102592.81
2019-02-22T01:08:04.922Z,102588.46
2019-02-22T01:10:31.631Z,102588.94
2019-02-22T01:12:57.664Z,102590.81
2019-02-22T01:15:23.660Z,102590.34
2019-02-22T01:17:49.631Z,102593.45
2019-02-22T01:20:15.706Z,102595.61
2019-02-22T01:22:41.671Z,102589.50
2019-02-22T01:25:07.647Z,102594.41
2019-02-22T01:27:33.723Z,102592.25
2019-02-22T01:29:59.688Z,102589.22
2019-02-22T01:32:25.703Z,102588.38
2019-02-22T01:34:51.704Z,102598.55
2019-02-22T01:37:17.680Z,102607.38
2019-02-22T01:39:43.668Z,102604.74
2019-02-22T01:42:09.647Z,102604.83
2019-02-22T01:44:35.624Z,102603.91
2019-02-22T01:47:01.608Z,102603.98
2019-02-22T01:49:27.618Z,102604.46
2019-02-22T01:51:53.680Z,102596.19
2019-02-22T01:54:19.664Z,102597.95
2019-02-22T01:56:45.645Z,102603.70
2019-02-22T01:59:11.638Z,102606.34
2019-02-22T02:01:37.712Z,102598.98
2019-02-22T02:04:03.690Z,102598.98
2019-02-22T02:06:29.691Z,102605.97
2019-02-22T02:08:55.691Z,102600.70
2019-02-22T02:11:21.733Z,102600.30
2019-02-22T02:13:47.704Z,102601.62
2019-02-22T02:16:13.752Z,102602.09
2019-02-22T02:18:39.789Z,102610.48
2019-02-22T02:21:05.815Z,102609.64
2019-02-22T02:23:31.798Z,102613.20
2019-02-22T02:25:57.880Z,102613.12
2019-02-22T02:28:23.859Z,102610.84
2019-02-22T02:30:49.868Z,102612.45
2019-02-22T02:33:15.847Z,102616.32
2019-02-22T02:35:41.839Z,102615.69
2019-02-22T02:38:07.843Z,102617.45
2019-02-22T02:40:33.843Z,102621.32
2019-02-22T02:42:59.810Z,102616.81
2019-02-22T02:45:25.868Z,102621.12
2019-02-22T02:47:51.868Z,102620.20
2019-02-22T02:50:17.889Z,102627.16
2019-02-22T02:52:43.926Z,102636.30
2019-02-22T02:55:09.899Z,102635.27
2019-02-22T02:57:35.950Z,102637.42
2019-02-22T03:00:01.923Z,102633.95
2019-02-22T03:02:27.900Z,102631.31
2019-02-22T03:04:53.959Z,102629.04
2019-02-22T03:07:19.969Z,102639.59
2019-02-22T03:09:45.975Z,102629.04
2019-02-22T03:12:11.947Z,102627.72
2019-02-22T03:14:37.976Z,102629.04
2019-02-22T03:17:03.952Z,102631.67
2019-02-22T03:19:29.958Z,102628.12
2019-02-22T03:21:55.945Z,102638.19
2019-02-22T03:24:21.989Z,102634.23
2019-02-22T03:26:48.015Z,102636.39
2019-02-22T03:29:14.008Z,102637.70
2019-02-22T03:31:40.057Z,102634.59
2019-02-22T03:34:06.049Z,102634.13
2019-02-22T03:36:32.090Z,102637.63
2019-02-22T03:38:58.077Z,102639.39
2019-02-22T03:41:32.404Z,102642.42
2019-02-22T03:43:51.818Z,102644.95
2019-02-22T03:46:17.804Z,102651.09
2019-02-22T03:48:43.783Z,102646.74
2019-02-22T03:51:09.821Z,102659.84
2019-02-22T03:53:35.790Z,102663.32
2019-02-22T03:56:01.759Z,102668.59
2019-02-22T03:58:27.783Z,102669.91
2019-02-22T04:00:53.839Z,102669.44
2019-02-22T04:03:19.840Z,102672.47
2019-02-22T04:05:45.884Z,102667.27
2019-02-22T04:08:11.925Z,102666.72
2019-02-22T04:10:37.978Z,102664.56
2019-02-22T04:13:03.960Z,102666.72
2019-02-22T04:15:29.940Z,102668.88
2019-02-22T04:17:55.931Z,102670.20
2019-02-22T04:20:21.956Z,102676.31
2019-02-22T04:22:47.980Z,102676.31
2019-02-22T04:25:13.990Z,102683.77
2019-02-22T04:27:40.042Z,102678.95
2019-02-22T04:30:06.076Z,102681.50
2019-02-22T04:32:32.059Z,102686.30
2019-02-22T04:34:58.031Z,102688.94
2019-02-22T04:37:24.075Z,102684.98
2019-02-22T04:39:50.057Z,102692.41
2019-02-22T04:42:16.027Z,102695.05
2019-02-22T04:44:42.057Z,102697.24
2019-02-22T04:47:08.032Z,102703.64
2019-02-22T04:49:34.007Z,102704.56
2019-02-22T04:52:00.005Z,102712.11
2019-02-22T04:54:25.967Z,102711.74
2019-02-22T04:56:51.931Z,102711.27
2019-02-22T04:59:17.910Z,102707.79
2019-02-22T05:01:43.899Z,102713.50
2019-02-22T05:04:09.988Z,102716.14
2019-02-22T05:06:35.973Z,102716.34
2019-02-22T05:09:01.963Z,102720.38
2019-02-22T05:11:27.972Z,102722.17
2019-02-22T05:13:53.946Z,102722.17
2019-02-22T05:16:19.942Z,102720.38
2019-02-22T05:18:45.929Z,102722.17
2019-02-22T05:21:11.900Z,102719.54
2019-02-22T05:23:37.920Z,102717.75
2019-02-22T05:26:03.891Z,102715.98
2019-02-22T05:28:29.949Z,102716.91
2019-02-22T05:30:55.927Z,102718.70
2019-02-22T05:33:21.913Z,102720.86
2019-02-22T05:35:47.959Z,102725.30
2019-02-22T05:38:13.967Z,102729.25
2019-02-22T05:40:40.025Z,102730.56
2019-02-22T05:43:06.042Z,102744.23
2019-02-22T05:45:32.083Z,102745.06
2019-02-22T05:47:58.122Z,102751.30
2019-02-22T05:50:24.087Z,102754.77
2019-02-22T05:52:50.077Z,102753.06
2019-02-22T05:55:16.063Z,102761.84
2019-02-22T05:57:42.135Z,102765.80
2019-02-22T06:00:08.111Z,102765.03
2019-02-22T06:02:34.269Z,102763.23
2019-02-22T06:05:00.314Z,102771.14
2019-02-22T06:07:26.318Z,102768.51
2019-02-22T06:09:52.316Z,102768.51
2019-02-22T06:12:18.696Z,102774.63
2019-02-22T06:14:44.851Z,102778.11
2019-02-22T06:17:14.678Z,102781.70
2019-02-22T06:19:38.563Z,102783.97
2019-02-22T06:22:04.534Z,102786.13
2019-02-22T06:24:30.604Z,102782.65
2019-02-22T06:26:56.580Z,102791.40
2019-02-22T06:29:22.585Z,102793.64
2019-02-22T06:31:48.639Z,102794.11
2019-02-22T06:34:14.621Z,102797.15
2019-02-22T06:36:40.631Z,102801.47
2019-02-22T06:39:06.622Z,102809.75
2019-02-22T06:41:32.602Z,102811.94
2019-02-22T06:43:58.621Z,102816.73
2019-02-22T06:46:24.600Z,102810.63
2019-02-22T06:48:50.579Z,102815.42
2019-02-22T06:51:16.588Z,102820.22
2019-02-22T06:53:42.616Z,102817.58
2019-02-22T06:56:08.601Z,102812.30
2019-02-22T06:58:34.622Z,102819.27
2019-02-22T07:01:00.595Z,102819.73
2019-02-22T07:03:26.594Z,102820.22
2019-02-22T07:05:52.686Z,102824.64
2019-02-22T07:08:18.658Z,102829.92
2019-02-22T07:10:44.657Z,102833.03
2019-02-22T07:13:10.651Z,102840.47
2019-02-22T07:15:36.703Z,102842.27
2019-02-22T07:18:02.668Z,102843.39
2019-02-22T07:20:28.776Z,102842.63
2019-02-22T07:22:54.882Z,102837.44
2019-02-22T07:25:20.857Z,102848.86
2019-02-22T07:27:46.840Z,102847.14
2019-02-22T07:30:12.843Z,102849.41
2019-02-22T07:32:38.951Z,102845.45
2019-02-22T07:35:05.103Z,102855.05
2019-02-22T07:37:31.159Z,102854.68
2019-02-22T07:39:57.201Z,102859.55
2019-02-22T07:42:23.177Z,102866.55
2019-02-22T07:44:49.164Z,102870.50
2019-02-22T07:47:15.127Z,102873.14
2019-02-22T07:49:41.207Z,102879.25
2019-02-22T07:52:07.228Z,102885.84
2019-02-22T07:54:33.215Z,102883.13
2019-02-22T07:56:59.196Z,102889.72
2019-02-22T07:59:25.171Z,102891.41
2019-02-22T08:01:51.160Z,102894.89
2019-02-22T08:04:17.147Z,102899.32
2019-02-22T08:06:43.234Z,102903.28
2019-02-22T08:09:09.236Z,102908.08
2019-02-22T08:11:35.240Z,102907.59
2019-02-22T08:14:01.274Z,102915.06
2019-02-22T08:16:27.257Z,102919.47
2019-02-22T08:19:01.010Z,102927.81
2019-02-22T08:21:20.919Z,102927.89
2019-02-22T08:23:47.076Z,102928.07
2019-02-22T08:26:13.156Z,102937.67
2019-02-22T08:28:39.207Z,102943.05
2019-02-22T08:31:05.194Z,102940.30
2019-02-22T08:33:31.204Z,102945.21
2019-02-22T08:35:57.208Z,102947.84
2019-02-22T08:38:23.183Z,102952.64
2019-02-22T08:40:49.175Z,102960.08
2019-02-22T08:43:15.172Z,102962.72
2019-02-22T08:45:41.157Z,102966.67
2019-02-22T08:48:07.154Z,102968.00
2019-02-22T08:50:33.167Z,102971.95
2019-02-22T08:52:59.189Z,102978.17
2019-02-22T08:55:25.159Z,102982.61
2019-02-22T08:57:51.267Z,102982.61
2019-02-22T09:00:17.317Z,102987.00
2019-02-22T09:02:43.299Z,102989.20
2019-02-22T09:05:09.293Z,102985.31
2019-02-22T09:07:35.345Z,102988.42
2019-02-22T09:10:01.335Z,102995.94
2019-02-22T09:12:27.425Z,102996.34
2019-02-22T09:14:53.447Z,102998.13
2019-02-22T09:17:19.450Z,103004.25
2019-02-22T09:19:45.517Z,103007.36
2019-02-22T09:22:21.860Z,103011.77
2019-02-22T09:24:39.212Z,103017.03
2019-02-22T09:27:05.224Z,103020.98
2019-02-22T09:29:31.274Z,103016.59
2019-02-22T09:31:57.293Z,103015.72
2019-02-22T09:34:23.293Z,103017.03
2019-02-22T09:36:49.277Z,103024.95
2019-02-22T09:39:15.262Z,103020.44
2019-02-22T09:41:41.247Z,103023.67
2019-02-22T09:44:07.251Z,103022.80
2019-02-22T09:46:33.244Z,103025.26
2019-02-22T09:48:59.250Z,103024.61
2019-02-22T09:51:25.327Z,103025.85
2019-02-22T09:53:51.300Z,103028.30
2019-02-22T09:56:17.309Z,103029.55
2019-02-22T09:58:43.398Z,103032.85
2019-02-22T10:01:09.406Z,103028.56
2019-02-22T10:03:35.406Z,103027.03
2019-02-22T10:06:01.477Z,103017.42
2019-02-22T10:08:27.459Z,103016.18
2019-02-22T10:10:53.528Z,103019.59
2019-02-22T10:13:19.541Z,103026.55
2019-02-22T10:15:45.511Z,103033.44
2019-02-22T10:18:11.500Z,103032.89
2019-02-22T10:20:37.480Z,103033.30
2019-02-22T10:23:03.468Z,103030.55
2019-02-22T10:25:29.452Z,103026.14
2019-02-22T10:27:55.440Z,103031.09
2019-02-22T10:30:21.432Z,103029.70
2019-02-22T10:32:47.421Z,103031.02
2019-02-22T10:35:13.394Z,103037.07
2019-02-22T10:37:39.409Z,103036.08
2019-02-22T10:40:05.494Z,103041.72
2019-02-22T10:42:31.459Z,103037.77
2019-02-22T10:44:57.434Z,103040.80
2019-02-22T10:47:23.408Z,103046.85
2019-02-22T10:49:49.426Z,103039.77
2019-02-22T10:52:15.388Z,103045.42
2019-02-22T10:54:41.393Z,103040.98
2019-02-22T10:57:07.368Z,103050.16
2019-02-22T10:59:33.371Z,103051.47
2019-02-22T11:01:59.427Z,103050.99
2019-02-22T11:04:25.423Z,103061.48
2019-02-22T11:06:51.412Z,103059.68
2019-02-22T11:09:17.644Z,103057.34
2019-02-22T11:11:43.635Z,103058.17
2019-02-22T11:14:09.675Z,103054.62
2019-02-22T11:16:35.652Z,103058.58
2019-02-22T11:19:01.628Z,103057.26
2019-02-22T11:21:27.615Z,103056.31
2019-02-22T11:23:53.631Z,103051.14
2019-02-22T11:26:19.614Z,103054.14
2019-02-22T11:28:45.596Z,103051.88
2019-02-22T11:31:11.583Z,103041.31
2019-02-22T11:33:37.568Z,103048.31
2019-02-22T11:36:03.629Z,103052.27
2019-02-22T11:38:29.688Z,103053.59
2019-02-22T11:40:55.667Z,103049.63
2019-02-22T11:43:21.641Z,103056.23
2019-02-22T11:45:49.890Z,103060.96
2019-02-22T11:48:15.424Z,103056.16
2019-02-22T11:50:41.594Z,103059.16
2019-02-22T11:53:07.633Z,103064.08
2019-02-22T11:55:33.658Z,103057.37
2019-02-22T11:57:59.696Z,103058.69
2019-02-22T12:00:25.686Z,103053.95
2019-02-22T12:02:51.719Z,103054.36
2019-02-22T12:05:17.746Z,103059.16
2019-02-22T12:07:43.722Z,103050.77
2019-02-22T12:10:09.723Z,103048.23
2019-02-22T12:12:35.716Z,103054.25
2019-02-22T12:15:01.759Z,103049.38
2019-02-22T12:17:27.816Z,103048.53
2019-02-22T12:19:53.799Z,103048.13
2019-02-22T12:22:19.763Z,103053.41
2019-02-22T12:24:45.757Z,103053.81
2019-02-22T12:27:14.108Z,103054.94
2019-02-22T12:29:39.454Z,103052.67
2019-02-22T12:32:05.480Z,103055.71
2019-02-22T12:34:31.456Z,103059.67
2019-02-22T12:36:57.427Z,103061.06
2019-02-22T12:39:23.428Z,103061.84
2019-02-22T12:41:49.403Z,103063.05
2019-02-22T12:44:15.443Z,103064.00
2019-02-22T12:46:41.438Z,103060.52
2019-02-22T12:49:07.432Z,103062.67
2019-02-22T12:51:33.402Z,103060.88
2019-02-22T12:53:59.368Z,103069.97
2019-02-22T12:56:55.993Z,103066.93
2019-02-22T12:58:53.153Z,103076.64
2019-02-22T13:01:19.126Z,103076.64
2019-02-22T13:03:45.100Z,103070.89
2019-02-22T13:06:11.089Z,103072.69
2019-02-22T13:08:37.143Z,103075.33
2019-02-22T13:11:03.140Z,103082.70
2019-02-22T13:13:29.200Z,103078.34
2019-02-22T13:15:57.310Z,103077.41
2019-02-22T13:18:23.420Z,103075.98
2019-02-22T13:20:49.410Z,103071.58
2019-02-22T13:23:15.493Z,103080.72
2019-02-22T13:25:41.514Z,103081.85
2019-02-22T13:28:08.575Z,103073.45
2019-02-22T13:30:34.568Z,103068.17
2019-02-22T13:33:00.559Z,103076.46
2019-02-22T13:35:26.554Z,103075.72
2019-02-22T13:37:52.629Z,103075.09
2019-02-22T13:40:18.660Z,103071.81
2019-02-22T13:42:44.714Z,103083.64
2019-02-22T13:45:10.770Z,103084.86
2019-02-22T13:47:36.803Z,103083.32
2019-02-22T13:50:02.803Z,103086.44
2019-02-22T13:52:28.826Z,103081.64
2019-02-22T13:54:54.881Z,103078.70
2019-02-22T13:57:20.883Z,103083.98
2019-02-22T13:59:48.133Z,103081.34
2019-02-22T14:02:14.412Z,103078.78
2019-02-22T14:04:40.451Z,103083.21
2019-02-22T14:07:06.443Z,103081.52
2019-02-22T14:09:32.495Z,103077.16
2019-02-22T14:11:58.455Z,103080.94
2019-02-22T14:14:24.475Z,103083.69
2019-02-22T14:16:50.466Z,103081.60
2019-02-22T14:19:16.437Z,103084.72
2019-02-22T14:21:42.460Z,103081.30
2019-02-22T14:24:08.521Z,103074.23
2019-02-22T14:26:34.497Z,103073.75
2019-02-22T14:29:00.475Z,103068.48
2019-02-22T14:31:26.605Z,103061.11
2019-02-22T14:33:52.562Z,103059.79
2019-02-22T14:36:18.573Z,103061.69
2019-02-22T14:38:44.677Z,103068.84
2019-02-22T14:41:10.676Z,103073.72
2019-02-22T14:43:36.711Z,103076.47
2019-02-22T14:46:02.744Z,103072.51
2019-02-22T14:48:28.785Z,103065.98
2019-02-22T14:50:54.880Z,103065.62
2019-02-22T14:53:20.923Z,103062.98
2019-02-22T14:55:46.902Z,103066.53
2019-02-22T14:58:12.890Z,103071.99
2019-02-22T15:00:38.866Z,103072.84
2019-02-22T15:03:04.854Z,103071.63
2019-02-22T15:05:30.868Z,103071.70
2019-02-22T15:07:56.837Z,103073.09
2019-02-22T15:10:22.837Z,103073.17
2019-02-22T15:12:48.900Z,103075.52
2019-02-22T15:15:14.875Z,103072.88
2019-02-22T15:17:40.913Z,103076.83
2019-02-22T15:20:06.892Z,103082.11
2019-02-22T15:22:32.925Z,103075.59
2019-02-22T15:24:58.884Z,103077.37
2019-02-22T15:27:24.871Z,103071.81
2019-02-22T15:29:50.880Z,103076.23
2019-02-22T15:32:16.944Z,103078.88
2019-02-22T15:34:42.934Z,103081.59
2019-02-22T15:37:08.912Z,103077.70
2019-02-22T15:39:34.932Z,103085.18
2019-02-22T15:42:00.928Z,103087.41
2019-02-22T15:44:26.907Z,103087.89
2019-02-22T15:46:52.890Z,103081.37
2019-02-22T15:49:18.905Z,103090.16
2019-02-22T15:51:44.969Z,103094.19
2019-02-22T15:54:10.951Z,103093.34
2019-02-22T15:56:36.926Z,103087.19
2019-02-22T15:59:02.945Z,103087.19
2019-02-22T16:01:28.926Z,103084.19
2019-02-22T16:03:54.900Z,103086.34
2019-02-22T16:06:20.891Z,103081.62
2019-02-22T16:08:47.161Z,103087.77
2019-02-22T16:11:13.158Z,103083.05
2019-02-22T16:13:41.170Z,103093.19
2019-02-22T16:16:06.853Z,103089.23
2019-02-22T16:18:32.848Z,103088.39
2019-02-22T16:20:58.879Z,103079.63
2019-02-22T16:23:24.926Z,103089.70
2019-02-22T16:25:50.913Z,103086.70
2019-02-22T16:28:16.876Z,103088.02
2019-02-22T16:30:42.868Z,103087.62
2019-02-22T16:33:08.864Z,103083.66
2019-02-22T16:35:34.889Z,103091.58
2019-02-22T16:38:00.897Z,103092.89
2019-02-22T16:40:26.866Z,103096.48
2019-02-22T16:42:52.946Z,103100.03
2019-02-22T16:45:18.987Z,103098.71
2019-02-22T16:47:44.979Z,103094.39
2019-02-22T16:50:10.993Z,103090.44
2019-02-22T16:52:37.044Z,103086.47
2019-02-22T16:55:03.034Z,103095.70
2019-02-22T16:57:29.025Z,103097.50
2019-02-22T16:59:55.023Z,103103.25
2019-02-22T17:02:21.011Z,103113.80
2019-02-22T17:04:47.117Z,103109.44
2019-02-22T17:07:13.113Z,103114.24
2019-02-22T17:09:39.084Z,103117.45
2019-02-22T17:12:06.741Z,103119.52
2019-02-22T17:14:33.253Z,103119.15
2019-02-22T17:16:59.236Z,103117.45
2019-02-22T17:19:25.301Z,103121.31
2019-02-22T17:21:51.337Z,103126.34
2019-02-22T17:24:17.408Z,103128.50
2019-02-22T17:26:43.377Z,103134.55
2019-02-22T17:29:09.352Z,103144.03
2019-02-22T17:31:35.331Z,103139.77
2019-02-22T17:34:01.351Z,103138.93
2019-02-22T17:36:27.412Z,103145.59
2019-02-22T17:38:53.442Z,103138.63
2019-02-22T17:41:19.515Z,103142.11
2019-02-22T17:43:45.621Z,103138.63
2019-02-22T17:46:11.622Z,103140.31
2019-02-22T17:48:37.684Z,103146.54
2019-02-22T17:51:03.667Z,103143.91
2019-02-22T17:53:29.649Z,103140.42
2019-02-22T17:55:55.639Z,103146.17
2019-02-22T17:58:24.444Z,103154.08
2019-02-22T18:00:49.336Z,103156.31
2019-02-22T18:03:15.407Z,103156.31
2019-02-22T18:05:41.445Z,103154.52
2019-02-22T18:08:07.427Z,103158.95
2019-02-22T18:10:33.403Z,103164.33
2019-02-22T18:12:59.403Z,103164.77
2019-02-22T18:15:25.390Z,103160.81
2019-02-22T18:17:51.384Z,103154.22
2019-02-22T18:20:17.447Z,103153.38
2019-02-22T18:22:43.453Z,103169.20
2019-02-22T18:25:09.433Z,103179.28
2019-02-22T18:27:35.444Z,103181.07
2019-02-22T18:30:01.469Z,103184.18
2019-02-22T18:32:27.457Z,103172.78
2019-02-22T18:34:53.462Z,103172.69
2019-02-22T18:37:19.463Z,103179.28
2019-02-22T18:39:45.538Z,103185.87
2019-02-22T18:42:11.535Z,103192.09
2019-02-22T18:44:37.534Z,103192.16
2019-02-22T18:47:03.587Z,103190.84
2019-02-22T18:49:30.726Z,103197.84
2019-02-22T18:51:56.779Z,103189.16
2019-02-22T18:54:22.784Z,103188.20
2019-02-22T18:56:48.901Z,103186.75
2019-02-22T18:59:14.910Z,103191.08
2019-02-22T19:01:41.029Z,103185.87
2019-02-22T19:04:07.036Z,103182.93
2019-02-22T19:06:33.073Z,103182.63
2019-02-22T19:08:59.052Z,103179.08
2019-02-22T19:11:25.108Z,103175.97
2019-02-22T19:13:51.104Z,103175.48
2019-02-22T19:16:17.176Z,103175.02
2019-02-22T19:18:43.212Z,103171.06
2019-02-22T19:21:09.195Z,103166.27
2019-02-22T19:23:35.676Z,103168.42
2019-02-22T19:26:01.858Z,103162.30
2019-02-22T19:28:27.848Z,103167.11
2019-02-22T19:30:53.952Z,103166.80
2019-02-22T19:33:19.972Z,103167.28
2019-02-22T19:35:45.997Z,103170.39
2019-02-22T19:38:12.119Z,103169.06
2019-02-22T19:40:38.290Z,103166.50
2019-02-22T19:43:04.426Z,103163.39
2019-02-22T19:45:30.459Z,103163.86
2019-02-22T19:47:56.454Z,103166.43
2019-02-22T19:50:22.501Z,103170.82
2019-02-22T19:52:48.553Z,103179.58
2019-02-22T19:55:14.550Z,103185.73
2019-02-22T19:57:40.953Z,103187.12
2019-02-22T20:00:07.072Z,103196.66
2019-02-22T20:02:33.112Z,103201.09
2019-02-22T20:04:59.097Z,103199.30
2019-02-22T20:07:25.118Z,103201.39
2019-02-22T20:09:51.149Z,103208.83
2019-02-22T20:12:17.137Z,103215.79
2019-02-22T20:14:43.222Z,103209.61
2019-02-22T20:17:15.180Z,103210.32
2019-02-22T20:19:41.221Z,103198.04
2019-02-22T20:22:07.295Z,103199.91
2019-02-22T20:24:33.292Z,103206.13
2019-02-22T20:26:59.275Z,103204.03
2019-02-22T20:29:25.290Z,103202.89
2019-02-22T20:31:51.289Z,103205.23
2019-02-22T20:34:17.297Z,103203.98
2019-02-22T20:36:44.175Z,103211.52
2019-02-22T20:39:10.372Z,103210.27
2019-02-22T20:41:36.386Z,103225.70
2019-02-22T20:44:02.387Z,103230.67
2019-02-22T20:46:28.380Z,103233.31
2019-02-22T20:49:00.848Z,103234.73
2019-02-22T20:51:22.142Z,103231.69
2019-02-22T20:53:48.129Z,103240.55
2019-02-22T20:56:14.199Z,103238.38
2019-02-22T20:58:40.248Z,103244.20
2019-02-22T21:01:14.496Z,103248.62
2019-02-22T21:03:34.013Z,103241.16
2019-02-22T21:06:00.064Z,103243.42
2019-02-22T21:08:26.057Z,103244.81
2019-02-22T21:10:52.101Z,103247.45
2019-02-22T21:13:18.154Z,103242.27
2019-02-22T21:15:44.434Z,103237.47
2019-02-22T21:18:16.284Z,103234.90
2019-02-22T21:20:38.294Z,103240.17
2019-02-22T21:23:04.283Z,103245.99
2019-02-22T21:25:30.445Z,103254.31
2019-02-22T21:27:56.465Z,103250.89
2019-02-22T21:30:22.523Z,103253.13
2019-02-22T21:32:48.493Z,103250.96
2019-02-22T21:35:14.598Z,103250.11
2019-02-22T21:37:40.677Z,103255.86
2019-02-22T21:40:06.671Z,103260.83
2019-02-22T21:42:33.523Z,103267.02
2019-02-22T21:44:59.570Z,103259.11
2019-02-22T21:47:25.548Z,103265.33
2019-02-22T21:49:51.564Z,103271.52
2019-02-22T21:52:17.535Z,103272.39
2019-02-22T21:54:43.531Z,103265.39
2019-02-22T21:57:09.521Z,103271.14
2019-02-22T21:59:35.516Z,103279.99
2019-02-22T22:02:01.534Z,103270.83
2019-02-22T22:04:27.512Z,103276.58
2019-02-22T22:06:53.499Z,103284.48
2019-02-22T22:09:19.595Z,103285.81
2019-02-22T22:11:45.713Z,103284.55
2019-02-22T22:14:11.742Z,103276.27
2019-02-22T22:16:37.808Z,103274.95
2019-02-22T22:19:03.814Z,103276.70
2019-02-22T22:21:29.789Z,103275.86
2019-02-22T22:23:55.807Z,103274.64
2019-02-22T22:26:21.935Z,103273.33
2019-02-22T22:28:47.969Z,103272.92
2019-02-22T22:31:13.964Z,103274.23
2019-02-22T22:33:39.993Z,103270.28
2019-02-22T22:36:06.339Z,103273.02
2019-02-22T22:38:32.383Z,103269.06
2019-02-22T22:40:58.597Z,103271.23
2019-02-22T22:43:24.738Z,103269.50
2019-02-22T22:45:50.863Z,103268.75
2019-02-22T22:48:16.968Z,103275.72
2019-02-22T22:50:42.974Z,103272.23
2019-02-22T22:53:09.028Z,103271.39
2019-02-22T22:55:35.049Z,103271.39
2019-02-22T22:58:01.109Z,103282.84
2019-02-22T23:00:27.098Z,103279.36
2019-02-22T23:02:53.131Z,103287.75
2019-02-22T23:05:19.176Z,103289.98
2019-02-22T23:07:45.203Z,103289.98
2019-02-22T23:10:11.236Z,103288.28
2019-02-22T23:12:37.320Z,103280.84
2019-02-22T23:15:03.415Z,103283.92
2019-02-22T23:17:29.418Z,103282.60
2019-02-22T23:19:55.385Z,103284.86
2019-02-22T23:22:21.368Z,103289.66
2019-02-22T23:24:47.417Z,103289.77
2019-02-22T23:27:13.416Z,103290.20
2019-02-22T23:29:39.463Z,103287.66
2019-02-22T23:32:05.466Z,103282.77
2019-02-22T23:34:31.487Z,103281.45
2019-02-22T23:36:57.552Z,103277.59
2019-02-22T23:39:23.573Z,103281.13
2019-02-22T23:41:49.542Z,103282.45
2019-02-22T23:44:15.510Z,103285.09
2019-02-22T23:46:41.526Z,103285.09
2019-02-22T23:49:13.072Z,103283.39
2019-02-22T23:51:35.391Z,103278.19
2019-02-22T23:54:01.496Z,103278.19
2019-02-22T23:56:27.492Z,103276.09
2019-02-22T23:58:53.480Z,103276.09
